Terminal Aerodrome Forecast
Issued by NWS

Home | Current Version | Previous Version | Graphics & Text | Print | Product List | Glossary On
Versions: 1 2 3 4 5 6 7 8 9 10 11 12 13 14 15 16 17 18 19 20 21 22 23
000
FTUS43 KGRB 041720
TAFATW
TAF
KATW 041720Z 0418/0518 08005KT P6SM BKN015
     FM042000 08006KT P6SM SCT030
     FM050500 14003KT 5SM BR SCT005 BKN015
      TEMPO 0508/0512 3SM BR BKN005
     FM051500 18005KT P6SM SCT040=

USA.gov is the U.S. government's official web portal to all federal, state and local government web resources and services.